sensor_id;sensor_type;location;lat;lon;timestamp;temperature;humidity
23562;DHT22;11959;49.418;8.728;2023-12-20T00:01:06;6.10;99.90
23562;DHT22;11959;49.418;8.728;2023-12-20T00:03:32;6.10;99.90
23562;DHT22;11959;49.418;8.728;2023-12-20T00:05:58;6.10;99.90
23562;DHT22;11959;49.418;8.728;2023-12-20T00:08:23;6.20;99.90
23562;DHT22;11959;49.418;8.728;2023-12-20T00:10:49;6.10;99.90
23562;DHT22;11959;49.418;8.728;2023-12-20T00:13:15;6.20;99.90
23562;DHT22;11959;49.418;8.728;2023-12-20T00:15:40;6.20;99.90
23562;DHT22;11959;49.418;8.728;2023-12-20T00:18:06;6.20;99.90
23562;DHT22;11959;49.418;8.728;2023-12-20T00:20:31;6.10;99.90
23562;DHT22;11959;49.418;8.728;2023-12-20T00:22:57;6.10;99.90
23562;DHT22;11959;49.418;8.728;2023-12-20T00:25:24;6.10;99.90
23562;DHT22;11959;49.418;8.728;2023-12-20T00:27:49;6.00;99.90
23562;DHT22;11959;49.418;8.728;2023-12-20T00:30:15;6.10;99.90
23562;DHT22;11959;49.418;8.728;2023-12-20T00:32:41;6.10;99.90
23562;DHT22;11959;49.418;8.728;2023-12-20T00:35:15;6.10;99.90
23562;DHT22;11959;49.418;8.728;2023-12-20T00:37:41;6.10;99.90
23562;DHT22;11959;49.418;8.728;2023-12-20T00:40:07;6.10;99.90
23562;DHT22;11959;49.418;8.728;2023-12-20T00:42:33;6.20;99.90
23562;DHT22;11959;49.418;8.728;2023-12-20T00:44:59;6.20;99.90
23562;DHT22;11959;49.418;8.728;2023-12-20T00:47:25;6.20;99.90
23562;DHT22;11959;49.418;8.728;2023-12-20T00:49:51;6.10;99.90
23562;DHT22;11959;49.418;8.728;2023-12-20T00:52:17;6.10;99.90
23562;DHT22;11959;49.418;8.728;2023-12-20T00:54:43;6.10;99.90
23562;DHT22;11959;49.418;8.728;2023-12-20T00:57:09;6.10;99.90
23562;DHT22;11959;49.418;8.728;2023-12-20T00:59:35;6.20;99.90
23562;DHT22;11959;49.418;8.728;2023-12-20T01:02:01;6.20;99.90
23562;DHT22;11959;49.418;8.728;2023-12-20T01:04:26;6.20;99.90
23562;DHT22;11959;49.418;8.728;2023-12-20T01:06:52;6.20;99.90
23562;DHT22;11959;49.418;8.728;2023-12-20T01:09:18;6.30;99.90
23562;DHT22;11959;49.418;8.728;2023-12-20T01:11:44;6.30;99.90
23562;DHT22;11959;49.418;8.728;2023-12-20T01:14:12;6.30;99.90
23562;DHT22;11959;49.418;8.728;2023-12-20T01:16:37;6.30;99.90
23562;DHT22;11959;49.418;8.728;2023-12-20T01:19:03;6.30;99.90
23562;DHT22;11959;49.418;8.728;2023-12-20T01:21:29;6.40;99.90
23562;DHT22;11959;49.418;8.728;2023-12-20T01:23:54;6.40;99.90
23562;DHT22;11959;49.418;8.728;2023-12-20T01:26:20;6.40;99.90
23562;DHT22;11959;49.418;8.728;2023-12-20T01:28:45;6.30;99.90
23562;DHT22;11959;49.418;8.728;2023-12-20T01:31:11;6.40;99.90
23562;DHT22;11959;49.418;8.728;2023-12-20T01:33:37;6.40;99.90
23562;DHT22;11959;49.418;8.728;2023-12-20T01:36:03;6.30;99.90
23562;DHT22;11959;49.418;8.728;2023-12-20T01:38:29;6.30;99.90
23562;DHT22;11959;49.418;8.728;2023-12-20T01:40:54;6.20;99.90
23562;DHT22;11959;49.418;8.728;2023-12-20T01:43:20;6.20;99.90
23562;DHT22;11959;49.418;8.728;2023-12-20T01:45:47;6.10;99.90
23562;DHT22;11959;49.418;8.728;2023-12-20T01:48:14;6.20;99.90
23562;DHT22;11959;49.418;8.728;2023-12-20T01:50:40;6.20;99.90
23562;DHT22;11959;49.418;8.728;2023-12-20T01:53:07;6.10;99.90
23562;DHT22;11959;49.418;8.728;2023-12-20T01:55:36;6.10;99.90
23562;DHT22;11959;49.418;8.728;2023-12-20T01:58:03;6.10;99.90
23562;DHT22;11959;49.418;8.728;2023-12-20T02:00:30;6.10;99.90
23562;DHT22;11959;49.418;8.728;2023-12-20T02:02:57;6.10;99.90
23562;DHT22;11959;49.418;8.728;2023-12-20T02:05:26;6.10;99.90
23562;DHT22;11959;49.418;8.728;2023-12-20T02:07:53;6.10;99.90
23562;DHT22;11959;49.418;8.728;2023-12-20T02:10:19;6.10;99.90
23562;DHT22;11959;49.418;8.728;2023-12-20T02:12:44;6.10;99.90
23562;DHT22;11959;49.418;8.728;2023-12-20T02:15:10;6.10;99.90
23562;DHT22;11959;49.418;8.728;2023-12-20T02:17:36;6.20;99.90
23562;DHT22;11959;49.418;8.728;2023-12-20T02:20:04;6.20;99.90
23562;DHT22;11959;49.418;8.728;2023-12-20T02:22:31;6.10;99.90
23562;DHT22;11959;49.418;8.728;2023-12-20T02:24:57;6.10;99.90
23562;DHT22;11959;49.418;8.728;2023-12-20T02:27:23;6.10;99.90
23562;DHT22;11959;49.418;8.728;2023-12-20T02:29:50;6.10;99.90
23562;DHT22;11959;49.418;8.728;2023-12-20T02:32:17;6.20;99.90
23562;DHT22;11959;49.418;8.728;2023-12-20T02:34:43;6.10;99.90
23562;DHT22;11959;49.418;8.728;2023-12-20T02:37:09;6.20;99.90
23562;DHT22;11959;49.418;8.728;2023-12-20T02:39:34;6.10;99.90
23562;DHT22;11959;49.418;8.728;2023-12-20T02:42:00;6.10;99.90
23562;DHT22;11959;49.418;8.728;2023-12-20T02:44:26;6.20;99.90
23562;DHT22;11959;49.418;8.728;2023-12-20T02:46:51;6.10;99.90
23562;DHT22;11959;49.418;8.728;2023-12-20T02:49:17;6.10;99.90
23562;DHT22;11959;49.418;8.728;2023-12-20T02:51:42;6.10;99.90
23562;DHT22;11959;49.418;8.728;2023-12-20T02:54:08;6.10;99.90
23562;DHT22;11959;49.418;8.728;2023-12-20T02:56:34;6.10;99.90
23562;DHT22;11959;49.418;8.728;2023-12-20T02:59:00;6.10;99.90
23562;DHT22;11959;49.418;8.728;2023-12-20T03:01:27;6.20;99.90
23562;DHT22;11959;49.418;8.728;2023-12-20T03:03:52;6.10;99.90
23562;DHT22;11959;49.418;8.728;2023-12-20T03:06:19;6.10;99.90
23562;DHT22;11959;49.418;8.728;2023-12-20T03:08:45;6.10;99.90
23562;DHT22;11959;49.418;8.728;2023-12-20T03:11:11;6.00;99.90
23562;DHT22;11959;49.418;8.728;2023-12-20T03:13:36;6.10;99.90
23562;DHT22;11959;49.418;8.728;2023-12-20T03:16:09;6.00;99.90
23562;DHT22;11959;49.418;8.728;2023-12-20T03:18:34;6.10;99.90
23562;DHT22;11959;49.418;8.728;2023-12-20T03:21:00;6.10;99.90
23562;DHT22;11959;49.418;8.728;2023-12-20T03:23:25;6.00;99.90
23562;DHT22;11959;49.418;8.728;2023-12-20T03:25:53;6.00;99.90
23562;DHT22;11959;49.418;8.728;2023-12-20T03:28:18;6.00;99.90
23562;DHT22;11959;49.418;8.728;2023-12-20T03:30:45;6.00;99.90
23562;DHT22;11959;49.418;8.728;2023-12-20T03:33:11;6.00;99.90
23562;DHT22;11959;49.418;8.728;2023-12-20T03:35:36;6.00;99.90
23562;DHT22;11959;49.418;8.728;2023-12-20T03:38:02;6.10;99.90
23562;DHT22;11959;49.418;8.728;2023-12-20T03:40:28;6.10;99.90
23562;DHT22;11959;49.418;8.728;2023-12-20T03:42:53;6.10;99.90
23562;DHT22;11959;49.418;8.728;2023-12-20T03:45:19;6.10;99.90
23562;DHT22;11959;49.418;8.728;2023-12-20T03:47:45;6.10;99.90
23562;DHT22;11959;49.418;8.728;2023-12-20T03:50:10;6.10;99.90
23562;DHT22;11959;49.418;8.728;2023-12-20T03:52:36;6.10;99.90
23562;DHT22;11959;49.418;8.728;2023-12-20T03:55:02;6.10;99.90
23562;DHT22;11959;49.418;8.728;2023-12-20T03:57:27;6.20;99.90
23562;DHT22;11959;49.418;8.728;2023-12-20T03:59:53;6.10;99.90
23562;DHT22;11959;49.418;8.728;2023-12-20T04:02:19;6.10;99.90
23562;DHT22;11959;49.418;8.728;2023-12-20T04:04:44;6.10;99.90
23562;DHT22;11959;49.418;8.728;2023-12-20T04:07:10;6.10;99.90
23562;DHT22;11959;49.418;8.728;2023-12-20T04:09:36;6.10;99.90
23562;DHT22;11959;49.418;8.728;2023-12-20T04:12:01;6.10;99.90
23562;DHT22;11959;49.418;8.728;2023-12-20T04:14:27;6.10;99.90
23562;DHT22;11959;49.418;8.728;2023-12-20T04:16:53;6.10;99.90
23562;DHT22;11959;49.418;8.728;2023-12-20T04:19:19;6.10;99.90
23562;DHT22;11959;49.418;8.728;2023-12-20T04:21:44;6.10;99.90
23562;DHT22;11959;49.418;8.728;2023-12-20T04:24:10;6.10;99.90
23562;DHT22;11959;49.418;8.728;2023-12-20T04:26:36;6.20;99.90
23562;DHT22;11959;49.418;8.728;2023-12-20T04:29:01;6.20;99.90
23562;DHT22;11959;49.418;8.728;2023-12-20T04:31:27;6.20;99.90
23562;DHT22;11959;49.418;8.728;2023-12-20T04:33:53;6.10;99.90
23562;DHT22;11959;49.418;8.728;2023-12-20T04:36:18;6.20;99.90
23562;DHT22;11959;49.418;8.728;2023-12-20T04:38:44;6.20;99.90
23562;DHT22;11959;49.418;8.728;2023-12-20T04:41:09;6.20;99.90
23562;DHT22;11959;49.418;8.728;2023-12-20T04:43:35;6.10;99.90
23562;DHT22;11959;49.418;8.728;2023-12-20T04:46:01;6.10;99.90
23562;DHT22;11959;49.418;8.728;2023-12-20T04:48:26;6.10;99.90
23562;DHT22;11959;49.418;8.728;2023-12-20T04:50:52;6.20;99.90
23562;DHT22;11959;49.418;8.728;2023-12-20T04:53:17;6.20;99.90
23562;DHT22;11959;49.418;8.728;2023-12-20T04:55:45;6.10;99.90
23562;DHT22;11959;49.418;8.728;2023-12-20T04:58:10;6.20;99.90
23562;DHT22;11959;49.418;8.728;2023-12-20T05:00:36;6.30;99.90
23562;DHT22;11959;49.418;8.728;2023-12-20T05:03:02;6.40;99.90
23562;DHT22;11959;49.418;8.728;2023-12-20T05:05:27;6.40;99.90
23562;DHT22;11959;49.418;8.728;2023-12-20T05:11:15;6.30;99.90
23562;DHT22;11959;49.418;8.728;2023-12-20T05:13:41;6.40;99.90
23562;DHT22;11959;49.418;8.728;2023-12-20T05:16:07;6.40;99.90
23562;DHT22;11959;49.418;8.728;2023-12-20T05:18:34;6.40;99.90
23562;DHT22;11959;49.418;8.728;2023-12-20T05:21:00;6.40;99.90
23562;DHT22;11959;49.418;8.728;2023-12-20T05:23:26;6.40;99.90
23562;DHT22;11959;49.418;8.728;2023-12-20T05:25:52;6.30;99.90
23562;DHT22;11959;49.418;8.728;2023-12-20T05:28:17;6.30;99.90
23562;DHT22;11959;49.418;8.728;2023-12-20T05:30:43;6.20;99.90
23562;DHT22;11959;49.418;8.728;2023-12-20T05:33:09;6.20;99.90
23562;DHT22;11959;49.418;8.728;2023-12-20T05:35:35;6.20;99.90
23562;DHT22;11959;49.418;8.728;2023-12-20T05:38:00;6.20;99.90
23562;DHT22;11959;49.418;8.728;2023-12-20T05:40:26;6.20;99.90
23562;DHT22;11959;49.418;8.728;2023-12-20T05:42:51;6.20;99.90
23562;DHT22;11959;49.418;8.728;2023-12-20T05:45:17;6.20;99.90
23562;DHT22;11959;49.418;8.728;2023-12-20T05:47:43;6.10;99.90
23562;DHT22;11959;49.418;8.728;2023-12-20T05:50:08;6.20;99.90
23562;DHT22;11959;49.418;8.728;2023-12-20T05:52:34;6.20;99.90
23562;DHT22;11959;49.418;8.728;2023-12-20T05:55:00;6.10;99.90
23562;DHT22;11959;49.418;8.728;2023-12-20T05:57:29;6.10;99.90
23562;DHT22;11959;49.418;8.728;2023-12-20T05:59:54;6.10;99.90
23562;DHT22;11959;49.418;8.728;2023-12-20T06:02:20;6.20;99.90
23562;DHT22;11959;49.418;8.728;2023-12-20T06:04:45;6.20;99.90
23562;DHT22;11959;49.418;8.728;2023-12-20T06:07:12;6.20;99.90
23562;DHT22;11959;49.418;8.728;2023-12-20T06:09:38;6.20;99.90
23562;DHT22;11959;49.418;8.728;2023-12-20T06:12:04;6.20;99.90
23562;DHT22;11959;49.418;8.728;2023-12-20T06:14:30;6.20;99.90
23562;DHT22;11959;49.418;8.728;2023-12-20T06:16:58;6.20;99.90
23562;DHT22;11959;49.418;8.728;2023-12-20T06:19:24;6.10;99.90
23562;DHT22;11959;49.418;8.728;2023-12-20T06:21:49;6.10;99.90
23562;DHT22;11959;49.418;8.728;2023-12-20T06:24:15;6.10;99.90
23562;DHT22;11959;49.418;8.728;2023-12-20T06:26:41;6.10;99.90
23562;DHT22;11959;49.418;8.728;2023-12-20T06:29:06;6.10;99.90
23562;DHT22;11959;49.418;8.728;2023-12-20T06:31:32;6.10;99.90
23562;DHT22;11959;49.418;8.728;2023-12-20T06:33:58;6.20;99.90
23562;DHT22;11959;49.418;8.728;2023-12-20T06:36:28;6.10;99.90
23562;DHT22;11959;49.418;8.728;2023-12-20T06:38:54;6.10;99.90
23562;DHT22;11959;49.418;8.728;2023-12-20T06:41:20;6.10;99.90
23562;DHT22;11959;49.418;8.728;2023-12-20T06:43:45;6.20;99.90
23562;DHT22;11959;49.418;8.728;2023-12-20T06:46:12;6.20;99.90
23562;DHT22;11959;49.418;8.728;2023-12-20T06:48:39;6.10;99.90
23562;DHT22;11959;49.418;8.728;2023-12-20T06:51:05;6.20;99.90
23562;DHT22;11959;49.418;8.728;2023-12-20T06:53:30;6.20;99.90
23562;DHT22;11959;49.418;8.728;2023-12-20T06:55:56;6.20;99.90
23562;DHT22;11959;49.418;8.728;2023-12-20T06:58:22;6.20;99.90
23562;DHT22;11959;49.418;8.728;2023-12-20T07:00:50;6.10;99.90
23562;DHT22;11959;49.418;8.728;2023-12-20T07:03:16;6.10;99.90
23562;DHT22;11959;49.418;8.728;2023-12-20T07:05:42;6.10;99.90
23562;DHT22;11959;49.418;8.728;2023-12-20T07:08:08;6.10;99.90
23562;DHT22;11959;49.418;8.728;2023-12-20T07:10:33;6.10;99.90
23562;DHT22;11959;49.418;8.728;2023-12-20T07:12:59;6.10;99.90
23562;DHT22;11959;49.418;8.728;2023-12-20T07:15:25;6.10;99.90
23562;DHT22;11959;49.418;8.728;2023-12-20T07:21:12;6.10;99.90
23562;DHT22;11959;49.418;8.728;2023-12-20T07:23:38;6.10;99.90
23562;DHT22;11959;49.418;8.728;2023-12-20T07:26:03;6.00;99.90
23562;DHT22;11959;49.418;8.728;2023-12-20T07:28:29;6.00;99.90
23562;DHT22;11959;49.418;8.728;2023-12-20T07:30:55;6.00;99.90
23562;DHT22;11959;49.418;8.728;2023-12-20T07:33:21;6.00;99.90
23562;DHT22;11959;49.418;8.728;2023-12-20T07:35:47;5.90;99.90
23562;DHT22;11959;49.418;8.728;2023-12-20T07:38:12;5.90;99.90
23562;DHT22;11959;49.418;8.728;2023-12-20T07:40:38;5.80;99.90
23562;DHT22;11959;49.418;8.728;2023-12-20T07:43:04;5.80;99.90
23562;DHT22;11959;49.418;8.728;2023-12-20T07:45:30;5.70;99.90
23562;DHT22;11959;49.418;8.728;2023-12-20T07:47:55;5.70;99.90
23562;DHT22;11959;49.418;8.728;2023-12-20T07:50:21;5.70;99.90
23562;DHT22;11959;49.418;8.728;2023-12-20T07:52:47;5.70;99.90
23562;DHT22;11959;49.418;8.728;2023-12-20T07:55:12;5.60;99.90
23562;DHT22;11959;49.418;8.728;2023-12-20T07:57:38;5.60;99.90
23562;DHT22;11959;49.418;8.728;2023-12-20T08:00:04;5.60;99.90
23562;DHT22;11959;49.418;8.728;2023-12-20T08:02:30;5.60;99.90
23562;DHT22;11959;49.418;8.728;2023-12-20T08:04:56;5.60;99.90
23562;DHT22;11959;49.418;8.728;2023-12-20T08:07:22;5.60;99.90
23562;DHT22;11959;49.418;8.728;2023-12-20T08:09:49;5.70;99.90
23562;DHT22;11959;49.418;8.728;2023-12-20T08:12:15;5.80;99.90
23562;DHT22;11959;49.418;8.728;2023-12-20T08:14:42;5.90;99.90
23562;DHT22;11959;49.418;8.728;2023-12-20T08:17:08;5.90;99.90
23562;DHT22;11959;49.418;8.728;2023-12-20T08:19:33;6.00;99.90
23562;DHT22;11959;49.418;8.728;2023-12-20T08:21:59;6.00;99.90
23562;DHT22;11959;49.418;8.728;2023-12-20T08:24:24;6.10;99.90
23562;DHT22;11959;49.418;8.728;2023-12-20T08:26:50;6.10;99.90
23562;DHT22;11959;49.418;8.728;2023-12-20T08:29:15;6.10;99.90
23562;DHT22;11959;49.418;8.728;2023-12-20T08:31:41;6.20;99.90
23562;DHT22;11959;49.418;8.728;2023-12-20T08:34:07;6.20;99.90
23562;DHT22;11959;49.418;8.728;2023-12-20T08:36:32;6.20;99.90
23562;DHT22;11959;49.418;8.728;2023-12-20T08:38:58;6.20;99.90
23562;DHT22;11959;49.418;8.728;2023-12-20T08:41:26;6.20;99.90
23562;DHT22;11959;49.418;8.728;2023-12-20T08:43:51;6.20;99.90
23562;DHT22;11959;49.418;8.728;2023-12-20T08:46:17;6.30;99.90
23562;DHT22;11959;49.418;8.728;2023-12-20T08:48:43;6.30;99.90
23562;DHT22;11959;49.418;8.728;2023-12-20T08:51:08;6.30;99.90
23562;DHT22;11959;49.418;8.728;2023-12-20T08:53:35;6.30;99.90
23562;DHT22;11959;49.418;8.728;2023-12-20T08:56:01;6.30;99.90
23562;DHT22;11959;49.418;8.728;2023-12-20T08:58:27;6.30;99.90
23562;DHT22;11959;49.418;8.728;2023-12-20T09:00:53;6.30;99.90
23562;DHT22;11959;49.418;8.728;2023-12-20T09:03:19;6.30;99.90
23562;DHT22;11959;49.418;8.728;2023-12-20T09:05:45;6.30;99.90
23562;DHT22;11959;49.418;8.728;2023-12-20T09:08:10;6.30;99.90
23562;DHT22;11959;49.418;8.728;2023-12-20T09:10:37;6.30;99.90
23562;DHT22;11959;49.418;8.728;2023-12-20T09:13:03;6.30;99.90
23562;DHT22;11959;49.418;8.728;2023-12-20T09:15:29;6.40;99.90
23562;DHT22;11959;49.418;8.728;2023-12-20T09:17:56;6.40;99.90
23562;DHT22;11959;49.418;8.728;2023-12-20T09:20:21;6.40;99.90
23562;DHT22;11959;49.418;8.728;2023-12-20T09:22:49;6.40;99.90
23562;DHT22;11959;49.418;8.728;2023-12-20T09:25:14;6.50;99.90
23562;DHT22;11959;49.418;8.728;2023-12-20T09:27:41;6.50;99.90
23562;DHT22;11959;49.418;8.728;2023-12-20T09:30:07;6.60;99.90
23562;DHT22;11959;49.418;8.728;2023-12-20T09:32:33;6.60;99.90
23562;DHT22;11959;49.418;8.728;2023-12-20T09:34:59;6.60;99.90
23562;DHT22;11959;49.418;8.728;2023-12-20T09:37:28;6.60;99.90
23562;DHT22;11959;49.418;8.728;2023-12-20T09:39:54;6.60;99.90
23562;DHT22;11959;49.418;8.728;2023-12-20T09:45:24;6.60;99.90
23562;DHT22;11959;49.418;8.728;2023-12-20T09:47:53;6.60;99.90
23562;DHT22;11959;49.418;8.728;2023-12-20T09:50:21;6.60;99.90
23562;DHT22;11959;49.418;8.728;2023-12-20T09:52:51;6.70;99.90
23562;DHT22;11959;49.418;8.728;2023-12-20T09:55:18;6.60;99.90
23562;DHT22;11959;49.418;8.728;2023-12-20T10:01:07;6.60;99.90
23562;DHT22;11959;49.418;8.728;2023-12-20T10:03:33;6.60;99.90
23562;DHT22;11959;49.418;8.728;2023-12-20T10:06:00;6.70;99.90
23562;DHT22;11959;49.418;8.728;2023-12-20T10:08:26;6.70;99.90
23562;DHT22;11959;49.418;8.728;2023-12-20T10:10:52;6.70;99.90
23562;DHT22;11959;49.418;8.728;2023-12-20T10:13:17;6.80;99.90
23562;DHT22;11959;49.418;8.728;2023-12-20T10:15:43;6.70;99.90
23562;DHT22;11959;49.418;8.728;2023-12-20T10:18:09;6.80;99.90
23562;DHT22;11959;49.418;8.728;2023-12-20T10:20:36;6.80;99.90
23562;DHT22;11959;49.418;8.728;2023-12-20T10:23:02;6.90;99.90
23562;DHT22;11959;49.418;8.728;2023-12-20T10:25:28;6.80;99.90
23562;DHT22;11959;49.418;8.728;2023-12-20T10:30:36;6.80;99.90
23562;DHT22;11959;49.418;8.728;2023-12-20T10:33:02;6.80;99.90
23562;DHT22;11959;49.418;8.728;2023-12-20T10:35:27;6.80;99.90
23562;DHT22;11959;49.418;8.728;2023-12-20T10:41:18;6.90;99.90
23562;DHT22;11959;49.418;8.728;2023-12-20T10:43:45;6.80;99.90
23562;DHT22;11959;49.418;8.728;2023-12-20T10:46:11;6.80;99.90
23562;DHT22;11959;49.418;8.728;2023-12-20T10:48:39;6.80;99.90
23562;DHT22;11959;49.418;8.728;2023-12-20T10:51:05;6.80;99.90
23562;DHT22;11959;49.418;8.728;2023-12-20T10:53:31;6.80;99.90
23562;DHT22;11959;49.418;8.728;2023-12-20T10:56:00;6.80;99.90
23562;DHT22;11959;49.418;8.728;2023-12-20T10:58:29;6.90;99.90
23562;DHT22;11959;49.418;8.728;2023-12-20T11:01:00;6.80;99.90
23562;DHT22;11959;49.418;8.728;2023-12-20T11:03:34;6.90;99.90
23562;DHT22;11959;49.418;8.728;2023-12-20T11:11:41;6.80;99.90
23562;DHT22;11959;49.418;8.728;2023-12-20T11:14:15;6.90;99.90
23562;DHT22;11959;49.418;8.728;2023-12-20T11:16:42;6.90;99.90
23562;DHT22;11959;49.418;8.728;2023-12-20T11:19:08;6.80;99.90
23562;DHT22;11959;49.418;8.728;2023-12-20T11:21:33;6.80;99.90
23562;DHT22;11959;49.418;8.728;2023-12-20T11:23:59;6.80;99.90
23562;DHT22;11959;49.418;8.728;2023-12-20T11:26:29;6.80;99.90
23562;DHT22;11959;49.418;8.728;2023-12-20T11:31:56;6.80;99.90
23562;DHT22;11959;49.418;8.728;2023-12-20T11:34:21;6.80;99.90
23562;DHT22;11959;49.418;8.728;2023-12-20T11:40:15;6.90;99.90
23562;DHT22;11959;49.418;8.728;2023-12-20T11:42:42;6.80;99.90
23562;DHT22;11959;49.418;8.728;2023-12-20T11:45:10;6.90;99.90
23562;DHT22;11959;49.418;8.728;2023-12-20T11:47:36;6.80;99.90
23562;DHT22;11959;49.418;8.728;2023-12-20T11:50:01;6.80;99.90
23562;DHT22;11959;49.418;8.728;2023-12-20T11:52:29;6.90;99.90
23562;DHT22;11959;49.418;8.728;2023-12-20T11:54:56;6.90;99.90
23562;DHT22;11959;49.418;8.728;2023-12-20T12:00:44;6.80;99.90
23562;DHT22;11959;49.418;8.728;2023-12-20T12:03:10;6.80;99.90
23562;DHT22;11959;49.418;8.728;2023-12-20T12:05:35;6.80;99.90
23562;DHT22;11959;49.418;8.728;2023-12-20T12:11:23;6.80;99.90
23562;DHT22;11959;49.418;8.728;2023-12-20T12:13:49;6.80;99.90
23562;DHT22;11959;49.418;8.728;2023-12-20T12:16:19;6.70;99.90
23562;DHT22;11959;49.418;8.728;2023-12-20T12:18:45;6.80;99.90
23562;DHT22;11959;49.418;8.728;2023-12-20T12:21:19;6.80;99.90
23562;DHT22;11959;49.418;8.728;2023-12-20T12:23:48;6.80;99.90
23562;DHT22;11959;49.418;8.728;2023-12-20T12:26:14;6.90;99.90
23562;DHT22;11959;49.418;8.728;2023-12-20T12:28:40;6.90;99.90
23562;DHT22;11959;49.418;8.728;2023-12-20T12:31:07;6.80;99.90
23562;DHT22;11959;49.418;8.728;2023-12-20T12:33:33;6.90;99.90
23562;DHT22;11959;49.418;8.728;2023-12-20T12:36:03;6.90;99.90
23562;DHT22;11959;49.418;8.728;2023-12-20T12:38:30;6.90;99.90
23562;DHT22;11959;49.418;8.728;2023-12-20T12:40:56;6.90;99.90
23562;DHT22;11959;49.418;8.728;2023-12-20T12:43:23;6.90;99.90
23562;DHT22;11959;49.418;8.728;2023-12-20T12:45:48;6.90;99.90
23562;DHT22;11959;49.418;8.728;2023-12-20T12:48:14;6.90;99.90
23562;DHT22;11959;49.418;8.728;2023-12-20T12:50:40;6.90;99.90
23562;DHT22;11959;49.418;8.728;2023-12-20T12:53:06;6.90;99.90
23562;DHT22;11959;49.418;8.728;2023-12-20T12:55:32;6.90;99.90
23562;DHT22;11959;49.418;8.728;2023-12-20T12:57:58;6.80;99.90
23562;DHT22;11959;49.418;8.728;2023-12-20T13:00:23;6.90;99.90
23562;DHT22;11959;49.418;8.728;2023-12-20T13:02:50;6.90;99.90
23562;DHT22;11959;49.418;8.728;2023-12-20T13:05:17;6.80;99.90
23562;DHT22;11959;49.418;8.728;2023-12-20T13:11:05;6.80;99.90
23562;DHT22;11959;49.418;8.728;2023-12-20T13:13:31;6.80;99.90
23562;DHT22;11959;49.418;8.728;2023-12-20T13:15:57;6.70;99.90
23562;DHT22;11959;49.418;8.728;2023-12-20T13:18:23;6.70;99.90
23562;DHT22;11959;49.418;8.728;2023-12-20T13:20:49;6.70;99.90
23562;DHT22;11959;49.418;8.728;2023-12-20T13:23:15;6.80;99.90
23562;DHT22;11959;49.418;8.728;2023-12-20T13:25:41;6.70;99.90
23562;DHT22;11959;49.418;8.728;2023-12-20T13:28:07;6.70;99.90
23562;DHT22;11959;49.418;8.728;2023-12-20T13:30:34;6.60;99.90
23562;DHT22;11959;49.418;8.728;2023-12-20T13:32:59;6.70;99.90
23562;DHT22;11959;49.418;8.728;2023-12-20T13:35:25;6.60;99.90
23562;DHT22;11959;49.418;8.728;2023-12-20T13:37:51;6.70;99.90
23562;DHT22;11959;49.418;8.728;2023-12-20T13:40:17;6.60;99.90
23562;DHT22;11959;49.418;8.728;2023-12-20T13:42:43;6.60;99.90
23562;DHT22;11959;49.418;8.728;2023-12-20T13:45:09;6.60;99.90
23562;DHT22;11959;49.418;8.728;2023-12-20T13:47:35;6.70;99.90
23562;DHT22;11959;49.418;8.728;2023-12-20T13:50:01;6.70;99.90
23562;DHT22;11959;49.418;8.728;2023-12-20T13:52:27;6.70;99.90
23562;DHT22;11959;49.418;8.728;2023-12-20T13:54:53;6.70;99.90
23562;DHT22;11959;49.418;8.728;2023-12-20T13:57:19;6.80;99.90
23562;DHT22;11959;49.418;8.728;2023-12-20T13:59:44;6.80;99.90
23562;DHT22;11959;49.418;8.728;2023-12-20T14:02:10;6.80;99.90
23562;DHT22;11959;49.418;8.728;2023-12-20T14:04:36;6.70;99.90
23562;DHT22;11959;49.418;8.728;2023-12-20T14:07:01;6.70;99.90
23562;DHT22;11959;49.418;8.728;2023-12-20T14:09:28;6.70;99.90
23562;DHT22;11959;49.418;8.728;2023-12-20T14:11:53;6.70;99.90
23562;DHT22;11959;49.418;8.728;2023-12-20T14:14:20;6.80;99.90
23562;DHT22;11959;49.418;8.728;2023-12-20T14:16:45;6.70;99.90
23562;DHT22;11959;49.418;8.728;2023-12-20T14:22:34;6.80;99.90
23562;DHT22;11959;49.418;8.728;2023-12-20T14:24:59;6.70;99.90
23562;DHT22;11959;49.418;8.728;2023-12-20T14:27:26;6.80;99.90
23562;DHT22;11959;49.418;8.728;2023-12-20T14:29:56;6.70;99.90
23562;DHT22;11959;49.418;8.728;2023-12-20T14:32:22;6.80;99.90
23562;DHT22;11959;49.418;8.728;2023-12-20T14:34:47;6.70;99.90
23562;DHT22;11959;49.418;8.728;2023-12-20T14:37:13;6.70;99.90
23562;DHT22;11959;49.418;8.728;2023-12-20T14:39:39;6.70;99.90
23562;DHT22;11959;49.418;8.728;2023-12-20T14:42:09;6.80;99.90
23562;DHT22;11959;49.418;8.728;2023-12-20T14:44:42;6.80;99.90
23562;DHT22;11959;49.418;8.728;2023-12-20T14:50:30;6.80;99.90
23562;DHT22;11959;49.418;8.728;2023-12-20T14:52:56;6.70;99.90
23562;DHT22;11959;49.418;8.728;2023-12-20T14:55:22;6.70;99.90
23562;DHT22;11959;49.418;8.728;2023-12-20T14:57:47;6.70;99.90
23562;DHT22;11959;49.418;8.728;2023-12-20T15:00:14;6.70;99.90
23562;DHT22;11959;49.418;8.728;2023-12-20T15:02:42;6.80;99.90
23562;DHT22;11959;49.418;8.728;2023-12-20T15:05:07;6.80;99.90
23562;DHT22;11959;49.418;8.728;2023-12-20T15:07:33;6.70;99.90
23562;DHT22;11959;49.418;8.728;2023-12-20T15:10:00;6.70;99.90
23562;DHT22;11959;49.418;8.728;2023-12-20T15:12:25;6.70;99.90
23562;DHT22;11959;49.418;8.728;2023-12-20T15:14:51;6.70;99.90
23562;DHT22;11959;49.418;8.728;2023-12-20T15:17:17;6.70;99.90
23562;DHT22;11959;49.418;8.728;2023-12-20T15:19:42;6.70;99.90
23562;DHT22;11959;49.418;8.728;2023-12-20T15:22:08;6.60;99.90
23562;DHT22;11959;49.418;8.728;2023-12-20T15:24:36;6.60;99.90
23562;DHT22;11959;49.418;8.728;2023-12-20T15:27:06;6.60;99.90
23562;DHT22;11959;49.418;8.728;2023-12-20T15:29:32;6.60;99.90
23562;DHT22;11959;49.418;8.728;2023-12-20T15:31:58;6.70;99.90
23562;DHT22;11959;49.418;8.728;2023-12-20T15:34:23;6.70;99.90
23562;DHT22;11959;49.418;8.728;2023-12-20T15:36:49;6.60;99.90
23562;DHT22;11959;49.418;8.728;2023-12-20T15:39:14;6.70;99.90
23562;DHT22;11959;49.418;8.728;2023-12-20T15:41:40;6.60;99.90
23562;DHT22;11959;49.418;8.728;2023-12-20T15:44:06;6.60;99.90
23562;DHT22;11959;49.418;8.728;2023-12-20T15:46:32;6.60;99.90
23562;DHT22;11959;49.418;8.728;2023-12-20T15:48:57;6.60;99.90
23562;DHT22;11959;49.418;8.728;2023-12-20T15:51:23;6.70;99.90
23562;DHT22;11959;49.418;8.728;2023-12-20T15:53:50;6.70;99.90
23562;DHT22;11959;49.418;8.728;2023-12-20T15:56:16;6.60;99.90
23562;DHT22;11959;49.418;8.728;2023-12-20T15:58:43;6.60;99.90
23562;DHT22;11959;49.418;8.728;2023-12-20T16:01:08;6.60;99.90
23562;DHT22;11959;49.418;8.728;2023-12-20T16:03:34;6.70;99.90
23562;DHT22;11959;49.418;8.728;2023-12-20T16:06:00;6.60;99.90
23562;DHT22;11959;49.418;8.728;2023-12-20T16:08:26;6.70;99.90
23562;DHT22;11959;49.418;8.728;2023-12-20T16:10:52;6.70;99.90
23562;DHT22;11959;49.418;8.728;2023-12-20T16:13:18;6.70;99.90
23562;DHT22;11959;49.418;8.728;2023-12-20T16:15:45;6.70;99.90
23562;DHT22;11959;49.418;8.728;2023-12-20T16:18:11;6.70;99.90
23562;DHT22;11959;49.418;8.728;2023-12-20T16:20:40;6.70;99.90
23562;DHT22;11959;49.418;8.728;2023-12-20T16:23:06;6.70;99.90
23562;DHT22;11959;49.418;8.728;2023-12-20T16:25:32;6.70;99.90